createdAt,value
2018-12-27T00:02:23.561Z,3.05
2018-12-27T00:13:23.718Z,3.05
2018-12-27T00:24:23.710Z,3.05
2018-12-27T00:35:24.472Z,3.05
2018-12-27T00:46:27.384Z,3.05
2018-12-27T00:57:27.967Z,3.04
2018-12-27T01:08:25.951Z,3.04
2018-12-27T01:19:29.385Z,3.04
2018-12-27T01:30:29.856Z,3.04
2018-12-27T01:41:31.004Z,3.04
2018-12-27T01:52:33.269Z,3.03
2018-12-27T02:03:32.094Z,3.03
2018-12-27T02:14:34.622Z,3.03
2018-12-27T02:25:36.519Z,3.03
2018-12-27T02:36:24.265Z,3.02
2018-12-27T02:47:23.158Z,3.02
2018-12-27T02:58:23.459Z,3.02
2018-12-27T03:09:27.403Z,3.02
2018-12-27T03:20:31.852Z,3.02
2018-12-27T03:31:36.827Z,3.02
2018-12-27T03:42:50.442Z,2.95
2018-12-27T03:53:49.294Z,3.01
2018-12-27T04:04:53.672Z,3.00
2018-12-27T04:15:53.949Z,3.00
2018-12-27T04:26:59.450Z,3.00
2018-12-27T04:37:57.295Z,3.00
2018-12-27T04:48:55.742Z,3.00
2018-12-27T04:59:57.286Z,3.00
2018-12-27T05:11:02.590Z,3.00
2018-12-27T05:22:07.428Z,3.00
2018-12-27T05:33:10.522Z,3.00
2018-12-27T05:44:15.152Z,2.99
2018-12-27T05:55:16.311Z,2.99
2018-12-27T06:06:17.098Z,2.99
2018-12-27T06:17:22.925Z,2.99
2018-12-27T06:28:23.259Z,2.99
2018-12-27T06:39:25.769Z,2.99
2018-12-27T06:50:30.601Z,2.99
2018-12-27T07:01:34.433Z,3.00
2018-12-27T07:12:39.068Z,3.02
2018-12-27T07:23:43.600Z,3.03
2018-12-27T07:34:46.663Z,3.05
2018-12-27T07:45:48.067Z,3.06
2018-12-27T07:56:54.079Z,3.07
2018-12-27T08:07:56.222Z,3.09
2018-12-27T08:18:54.804Z,3.11
2018-12-27T08:29:54.129Z,3.13
2018-12-27T08:40:38.882Z,3.14
2018-12-27T08:51:38.634Z,3.15
2018-12-27T09:02:34.240Z,3.15
2018-12-27T09:13:30.226Z,3.16
2018-12-27T09:24:29.761Z,3.18
2018-12-27T09:35:30.361Z,3.19
2018-12-27T09:46:33.841Z,3.21
2018-12-27T09:57:32.175Z,3.22
2018-12-27T10:08:25.293Z,3.22
2018-12-27T10:19:23.958Z,3.22
2018-12-27T10:30:27.876Z,3.23
2018-12-27T10:41:28.588Z,3.23
2018-12-27T10:52:29.740Z,3.24
2018-12-27T11:03:30.623Z,3.37
2018-12-27T11:14:34.215Z,3.34
2018-12-27T11:25:38.504Z,3.36
2018-12-27T11:36:41.881Z,3.36
2018-12-27T11:47:31.702Z,3.43
2018-12-27T11:58:31.386Z,3.44
2018-12-27T12:09:08.824Z,3.40
2018-12-27T12:20:06.248Z,3.36
2018-12-27T12:31:01.779Z,3.38
2018-12-27T12:41:37.382Z,3.37
2018-12-27T12:52:26.045Z,3.40
2018-12-27T13:03:22.523Z,3.36
2018-12-27T13:14:06.815Z,3.37
2018-12-27T13:24:57.210Z,3.40
2018-12-27T13:35:54.724Z,3.39
2018-12-27T13:46:46.358Z,3.38
2018-12-27T13:57:33.904Z,3.37
2018-12-27T14:08:31.337Z,3.36
2018-12-27T14:19:33.358Z,3.36
2018-12-27T14:30:29.531Z,3.35
2018-12-27T14:41:30.737Z,3.34
2018-12-27T14:52:26.916Z,3.33
2018-12-27T15:03:28.630Z,3.32
2018-12-27T15:14:29.398Z,3.31
2018-12-27T15:25:32.583Z,3.30
2018-12-27T15:36:29.668Z,3.29
2018-12-27T15:47:29.394Z,3.28
2018-12-27T15:58:27.427Z,3.28
2018-12-27T16:09:29.782Z,3.27
2018-12-27T16:20:19.283Z,3.26
2018-12-27T16:31:21.285Z,3.26
2018-12-27T16:42:22.055Z,3.25
2018-12-27T16:53:24.823Z,3.25
2018-12-27T17:04:25.141Z,3.25
2018-12-27T17:15:23.978Z,3.25
2018-12-27T17:26:24.397Z,3.24
2018-12-27T17:37:27.915Z,3.24
2018-12-27T17:48:25.642Z,3.23
2018-12-27T17:59:24.229Z,3.23
2018-12-27T18:10:24.210Z,3.22
2018-12-27T18:21:27.476Z,3.22
2018-12-27T18:32:28.243Z,3.21
2018-12-27T18:43:28.925Z,3.21
2018-12-27T18:54:26.503Z,3.21
2018-12-27T19:05:11.577Z,3.20
2018-12-27T19:16:09.147Z,3.20
2018-12-27T19:27:04.428Z,3.19
2018-12-27T19:37:57.598Z,3.19
2018-12-27T19:48:44.569Z,3.18
2018-12-27T19:59:41.780Z,3.18
2018-12-27T20:10:43.964Z,3.17
2018-12-27T20:21:40.235Z,3.17
2018-12-27T20:32:35.977Z,3.17
2018-12-27T20:43:35.540Z,3.16
2018-12-27T20:54:40.177Z,3.16
2018-12-27T21:05:44.414Z,3.16
2018-12-27T21:16:44.826Z,3.16
2018-12-27T21:27:32.241Z,3.15
2018-12-27T21:38:21.331Z,3.15
2018-12-27T21:49:18.742Z,3.15
2018-12-27T22:00:19.059Z,3.15
2018-12-27T22:11:13.668Z,3.14
2018-12-27T22:21:58.627Z,3.14
2018-12-27T22:32:57.652Z,3.14
2018-12-27T22:44:02.315Z,3.14
2018-12-27T22:55:03.851Z,3.13
2018-12-27T23:06:03.837Z,3.13
2018-12-27T23:17:04.152Z,3.13
2018-12-27T23:28:06.114Z,3.13
2018-12-27T23:39:06.723Z,3.12
2018-12-27T23:50:03.682Z,3.12
